Time;durP1;ratioP1;P1;durP2;ratioP2;P2;SDS_P1;SDS_P2;PMS_P1;PMS_P2;Temp;Humidity;BMP_temperature;BMP_pressure;BME280_temperature;BME280_humidity;BME280_pressure;Samples;Min_cycle;Max_cycle;Signal;HPM_P1;HPM_P2
2021/01/16 00:01:05;;;;;;;32.20;15.55;;;0.30;99.90;;;;;;5094281;28;20055;-73
2021/01/16 00:03:30;;;;;;;35.45;16.10;;;0.20;99.90;;;;;;5094197;28;20016;-73
2021/01/16 00:05:59;;;;;;;32.60;15.95;;;0.20;99.90;;;;;;5094166;28;20461;-73
2021/01/16 00:08:25;;;;;;;33.20;15.77;;;0.20;99.90;;;;;;5093477;28;20066;-73
2021/01/16 00:10:54;;;;;;;34.40;17.00;;;0.20;99.90;;;;;;5094086;28;20024;-72
2021/01/16 00:13:23;;;;;;;32.33;14.75;;;0.20;99.90;;;;;;5094065;28;20524;-72
2021/01/16 00:15:49;;;;;;;30.80;14.88;;;0.20;99.90;;;;;;5092896;28;20024;-72
2021/01/16 00:18:18;;;;;;;30.17;15.00;;;0.30;99.90;;;;;;5094049;28;20036;-72
2021/01/16 00:20:46;;;;;;;33.70;15.70;;;0.20;99.90;;;;;;5094037;28;20024;-72
2021/01/16 00:23:12;;;;;;;35.00;16.13;;;0.20;99.90;;;;;;5094023;28;20020;-72
2021/01/16 00:25:39;;;;;;;32.13;15.73;;;0.20;99.90;;;;;;5093940;28;20035;-72
2021/01/16 00:28:05;;;;;;;35.17;16.83;;;0.10;99.90;;;;;;5093924;28;20107;-73
2021/01/16 00:30:34;;;;;;;32.22;16.40;;;0.10;99.90;;;;;;5092314;28;20426;-73
2021/01/16 00:33:02;;;;;;;37.42;17.40;;;0.20;99.90;;;;;;5093930;28;20024;-72
2021/01/16 00:35:30;;;;;;;38.40;17.38;;;0.20;99.90;;;;;;5093916;28;20024;-72
2021/01/16 00:37:55;;;;;;;32.20;16.15;;;0.20;99.90;;;;;;5093356;28;20023;-72
2021/01/16 00:40:24;;;;;;;35.25;16.95;;;0.20;99.90;;;;;;5092826;28;20362;-72
2021/01/16 00:42:53;;;;;;;36.15;17.10;;;0.20;99.90;;;;;;5093835;28;20452;-73
2021/01/16 00:45:19;;;;;;;32.47;16.17;;;0.30;99.90;;;;;;5092856;28;20063;-73
2021/01/16 00:47:46;;;;;;;34.65;16.83;;;0.20;99.90;;;;;;5093516;28;20020;-72
2021/01/16 00:50:14;;;;;;;35.17;16.60;;;0.20;99.90;;;;;;5093405;28;20086;-72
2021/01/16 00:52:40;;;;;;;34.72;16.15;;;0.30;99.90;;;;;;5097736;28;20016;-72
2021/01/16 00:55:08;;;;;;;34.00;16.23;;;0.30;99.90;;;;;;5097392;28;20102;-72
2021/01/16 00:57:34;;;;;;;36.80;16.83;;;0.20;99.90;;;;;;5097661;28;20525;-72
2021/01/16 01:00:00;;;;;;;31.90;15.63;;;0.20;99.90;;;;;;5097315;28;20035;-72
2021/01/16 01:02:26;;;;;;;35.67;16.80;;;0.20;99.90;;;;;;5097223;28;20028;-72
2021/01/16 01:04:52;;;;;;;32.40;16.23;;;0.20;99.90;;;;;;5097447;28;20050;-72
2021/01/16 01:07:17;;;;;;;35.80;16.13;;;0.20;99.90;;;;;;5095662;28;20047;-72
2021/01/16 01:09:44;;;;;;;34.88;16.38;;;0.30;99.90;;;;;;5096596;28;20105;-72
2021/01/16 01:12:11;;;;;;;33.80;15.48;;;0.20;99.90;;;;;;5095563;28;20032;-73
2021/01/16 01:14:37;;;;;;;33.95;16.70;;;0.20;99.90;;;;;;5095473;28;20105;-72
2021/01/16 01:17:14;;;;;;;31.80;15.32;;;0.20;99.90;;;;;;5095783;28;20027;-72
2021/01/16 01:19:39;;;;;;;31.90;15.45;;;0.20;99.90;;;;;;5096607;28;20016;-72
2021/01/16 01:22:05;;;;;;;29.77;14.93;;;0.20;99.90;;;;;;5097107;28;20107;-72
2021/01/16 01:24:30;;;;;;;33.00;14.98;;;0.20;99.90;;;;;;5097093;28;20020;-72
2021/01/16 01:26:56;;;;;;;31.98;15.00;;;0.20;99.90;;;;;;5096746;28;20056;-72
2021/01/16 01:29:21;;;;;;;30.55;14.50;;;0.20;99.90;;;;;;5096873;28;20560;-72
2021/01/16 01:31:47;;;;;;;29.02;14.75;;;0.20;99.90;;;;;;5096920;28;20039;-72
2021/01/16 01:34:12;;;;;;;33.97;15.65;;;0.20;99.90;;;;;;5096912;28;20024;-72
2021/01/16 01:36:38;;;;;;;32.25;15.68;;;0.20;99.90;;;;;;5096562;28;20028;-73
2021/01/16 01:39:04;;;;;;;33.63;16.55;;;0.20;99.90;;;;;;5096527;28;20469;-72
2021/01/16 01:41:30;;;;;;;29.50;15.07;;;0.20;99.90;;;;;;5096788;28;20078;-72
2021/01/16 01:43:55;;;;;;;30.80;14.93;;;0.20;99.90;;;;;;5096668;28;20024;-72
2021/01/16 01:46:21;;;;;;;33.90;14.82;;;0.20;99.90;;;;;;5095446;28;20032;-72
2021/01/16 01:48:47;;;;;;;31.50;14.70;;;0.10;99.90;;;;;;5094681;28;20020;-72
2021/01/16 01:51:14;;;;;;;29.95;15.23;;;0.20;99.90;;;;;;5096538;28;20031;-72
2021/01/16 01:53:42;;;;;;;31.23;14.30;;;0.20;99.90;;;;;;5096502;28;20020;-72
2021/01/16 01:56:09;;;;;;;31.75;15.38;;;0.20;99.90;;;;;;5096205;28;20020;-72
2021/01/16 01:58:37;;;;;;;29.58;15.35;;;0.20;99.90;;;;;;5095867;28;20035;-72
2021/01/16 02:01:02;;;;;;;33.25;14.45;;;0.20;99.90;;;;;;5094593;28;20028;-72
2021/01/16 02:03:31;;;;;;;32.10;15.00;;;0.20;99.90;;;;;;5096062;28;20081;-72
2021/01/16 02:05:56;;;;;;;33.72;15.02;;;0.30;99.90;;;;;;5096064;28;20059;-72
2021/01/16 02:08:23;;;;;;;33.30;14.82;;;0.20;99.90;;;;;;5095693;28;20072;-72
2021/01/16 02:10:49;;;;;;;34.58;16.25;;;0.20;99.90;;;;;;5095952;28;20024;-72
2021/01/16 02:13:15;;;;;;;32.38;14.93;;;0.20;99.90;;;;;;5096132;28;20020;-72
2021/01/16 02:16:04;;;;;;;31.20;14.45;;;0.10;99.90;;;;;;5095537;28;20021;-72
2021/01/16 02:18:35;;;;;;;37.13;15.88;;;0.10;99.90;;;;;;5095795;28;20054;-72
2021/01/16 02:21:06;;;;;;;35.05;16.27;;;0.10;99.90;;;;;;5096032;28;20024;-72
2021/01/16 02:23:34;;;;;;;33.85;14.75;;;0.10;99.90;;;;;;5095666;28;20024;-72
2021/01/16 02:26:27;;;;;;;32.65;15.30;;;0.10;99.90;;;;;;5095619;28;20102;-72
2021/01/16 02:28:56;;;;;;;33.00;15.27;;;0.10;99.90;;;;;;5095323;28;20066;-72
2021/01/16 02:31:27;;;;;;;33.47;15.07;;;0.10;99.90;;;;;;5095792;28;20024;-72
2021/01/16 02:33:56;;;;;;;32.75;15.43;;;0.10;99.90;;;;;;5093936;28;20385;-72
2021/01/16 02:36:34;;;;;;;32.80;16.13;;;0.10;99.90;;;;;;5095671;28;20028;-72
2021/01/16 02:39:26;;;;;;;31.83;15.77;;;0.20;99.90;;;;;;5095671;28;20035;-72
2021/01/16 02:42:05;;;;;;;33.53;16.33;;;0.20;99.90;;;;;;5094498;28;20028;-72
2021/01/16 02:44:39;;;;;;;33.20;16.80;;;0.10;99.90;;;;;;5094471;28;20028;-72
2021/01/16 02:47:44;;;;;;;34.50;17.63;;;0.20;99.90;;;;;;5095269;28;20461;-72
2021/01/16 02:50:10;;;;;;;35.70;17.30;;;0.20;99.90;;;;;;5093326;28;20060;-73
2021/01/16 02:52:44;;;;;;;40.53;18.05;;;0.30;99.90;;;;;;5093577;28;20538;-72
2021/01/16 02:55:10;;;;;;;39.70;18.55;;;0.30;99.90;;;;;;5095375;28;20032;-73
2021/01/16 02:57:35;;;;;;;36.10;17.50;;;0.30;99.90;;;;;;5095042;28;20047;-73
2021/01/16 03:00:03;;;;;;;40.80;18.63;;;0.20;99.90;;;;;;5094069;28;20074;-73
2021/01/16 03:02:28;;;;;;;35.60;16.80;;;0.20;99.90;;;;;;5094934;28;20020;-73
2021/01/16 03:04:54;;;;;;;34.65;17.63;;;0.20;99.90;;;;;;5095097;28;20028;-73
2021/01/16 03:07:21;;;;;;;36.63;17.58;;;0.10;99.90;;;;;;5093791;28;20403;-74
2021/01/16 03:09:48;;;;;;;38.60;17.63;;;0.20;99.90;;;;;;5094755;28;20052;-72
2021/01/16 03:12:13;;;;;;;33.97;16.90;;;0.30;99.90;;;;;;5095033;28;20035;-72
2021/01/16 03:14:48;;;;;;;35.05;17.05;;;0.30;99.90;;;;;;5094257;28;20028;-72
2021/01/16 03:17:15;;;;;;;36.47;17.13;;;0.20;99.90;;;;;;5094894;28;20020;-73
2021/01/16 03:19:46;;;;;;;34.65;17.02;;;0.20;99.90;;;;;;5094627;28;20024;-72
2021/01/16 03:22:28;;;;;;;37.72;18.40;;;0.20;99.90;;;;;;5094568;28;20528;-72
2021/01/16 03:24:56;;;;;;;32.80;13.45;;;0.20;99.90;;;;;;5094833;28;20035;-72
2021/01/16 03:27:23;;;;;;;37.00;17.13;;;0.20;99.90;;;;;;5094474;28;20100;-72
2021/01/16 03:29:49;;;;;;;38.83;18.20;;;0.20;99.90;;;;;;5094658;28;20380;-73
2021/01/16 03:32:15;;;;;;;41.40;18.20;;;0.20;99.90;;;;;;5094672;28;20021;-72
2021/01/16 03:34:42;;;;;;;35.50;16.95;;;0.10;99.90;;;;;;5094613;28;20031;-72
2021/01/16 03:37:09;;;;;;;39.58;18.23;;;0.20;99.90;;;;;;5093414;28;20476;-73
2021/01/16 03:39:35;;;;;;;36.42;18.23;;;0.30;99.90;;;;;;5093134;28;20103;-73
2021/01/16 03:42:01;;;;;;;37.58;17.40;;;0.30;99.90;;;;;;5094237;28;20027;-74
2021/01/16 03:44:27;;;;;;;35.47;17.30;;;0.20;99.90;;;;;;5094470;28;20024;-73
2021/01/16 03:46:52;;;;;;;37.13;17.63;;;0.30;99.90;;;;;;5094447;28;20043;-73
2021/01/16 03:49:18;;;;;;;42.58;18.80;;;0.30;99.90;;;;;;5094064;28;20375;-74
2021/01/16 03:51:44;;;;;;;37.88;17.77;;;0.30;99.90;;;;;;5094319;28;20025;-71
2021/01/16 03:54:09;;;;;;;38.78;17.75;;;0.30;99.90;;;;;;5094044;28;20073;-72
2021/01/16 03:56:35;;;;;;;40.17;17.65;;;0.20;99.90;;;;;;5094310;28;20020;-72
2021/01/16 03:59:02;;;;;;;40.22;17.10;;;0.20;99.90;;;;;;5094298;28;20055;-72
2021/01/16 04:01:29;;;;;;;37.33;17.92;;;0.20;99.90;;;;;;5093954;28;20504;-72
2021/01/16 04:03:54;;;;;;;37.83;17.52;;;0.20;99.90;;;;;;5093663;28;20374;-73
2021/01/16 04:06:20;;;;;;;38.45;16.90;;;0.20;99.90;;;;;;5094121;28;20032;-73
2021/01/16 04:08:45;;;;;;;38.28;18.13;;;0.20;99.90;;;;;;5093441;28;20043;-72
2021/01/16 04:11:11;;;;;;;36.92;17.45;;;0.20;99.90;;;;;;5094125;28;20027;-73
2021/01/16 04:13:37;;;;;;;41.05;19.33;;;0.20;99.90;;;;;;5092260;28;20012;-73
2021/01/16 04:16:04;;;;;;;38.90;17.63;;;0.10;99.90;;;;;;5094132;28;20027;-73
2021/01/16 04:18:31;;;;;;;39.20;18.15;;;0.30;99.90;;;;;;5094066;28;20027;-73
2021/01/16 04:20:57;;;;;;;33.85;16.83;;;0.30;99.90;;;;;;5093786;28;20024;-73
2021/01/16 04:23:22;;;;;;;40.08;17.83;;;0.20;99.90;;;;;;5093727;28;20417;-73
2021/01/16 04:25:48;;;;;;;39.60;18.02;;;0.20;99.90;;;;;;5096758;28;20476;-73
2021/01/16 04:28:13;;;;;;;35.75;17.55;;;0.20;99.90;;;;;;5098090;28;20106;-73
2021/01/16 04:30:39;;;;;;;42.78;18.08;;;0.30;99.90;;;;;;5096324;28;20077;-73
2021/01/16 04:33:06;;;;;;;38.05;17.80;;;0.30;99.90;;;;;;5098102;28;20024;-73
2021/01/16 04:35:32;;;;;;;35.90;17.48;;;0.20;99.90;;;;;;5097506;28;20020;-73
2021/01/16 04:37:57;;;;;;;37.83;17.48;;;0.20;99.90;;;;;;5097762;28;20031;-73
2021/01/16 04:40:23;;;;;;;37.25;17.20;;;0.20;99.90;;;;;;5097906;28;20027;-73
2021/01/16 04:42:51;;;;;;;37.53;16.85;;;0.30;99.90;;;;;;5097901;28;20020;-73
2021/01/16 04:45:17;;;;;;;40.15;18.17;;;0.30;99.90;;;;;;5097292;28;20103;-73
2021/01/16 04:47:47;;;;;;;39.20;17.95;;;0.30;99.90;;;;;;5097852;28;20432;-73
2021/01/16 04:50:14;;;;;;;37.67;18.42;;;0.20;99.90;;;;;;5097152;28;20024;-73
2021/01/16 04:52:41;;;;;;;39.55;17.83;;;0.30;99.90;;;;;;5096284;28;20016;-73
2021/01/16 04:55:09;;;;;;;35.35;17.20;;;0.30;99.90;;;;;;5096226;28;20081;-73
2021/01/16 04:57:37;;;;;;;36.88;17.08;;;0.30;99.90;;;;;;5097659;28;20077;-73
2021/01/16 05:00:08;;;;;;;36.20;17.25;;;0.20;99.90;;;;;;5097026;28;20107;-73
2021/01/16 05:02:39;;;;;;;43.55;19.08;;;0.20;99.90;;;;;;5097531;28;20024;-73
2021/01/16 05:05:06;;;;;;;37.05;16.30;;;0.20;99.90;;;;;;5097489;28;20077;-73
2021/01/16 05:07:33;;;;;;;44.60;19.40;;;0.30;99.90;;;;;;5097239;28;20424;-73
2021/01/16 05:10:00;;;;;;;38.67;17.40;;;0.20;99.90;;;;;;5096656;28;20499;-73
2021/01/16 05:12:50;;;;;;;37.97;18.13;;;0.30;99.90;;;;;;5097375;28;20020;-73
2021/01/16 05:15:21;;;;;;;39.17;17.15;;;0.20;99.90;;;;;;5097328;28;20020;-73
2021/01/16 05:17:57;;;;;;;39.17;17.90;;;0.30;99.90;;;;;;5096988;28;20053;-73
2021/01/16 05:20:23;;;;;;;38.22;17.02;;;0.20;99.90;;;;;;5096700;28;20111;-73
2021/01/16 05:22:50;;;;;;;41.15;17.98;;;0.20;99.90;;;;;;5096888;28;20165;-73
2021/01/16 05:25:16;;;;;;;42.47;18.55;;;0.30;99.90;;;;;;5097081;28;20028;-73
2021/01/16 05:27:52;;;;;;;35.30;17.52;;;0.30;99.90;;;;;;5096708;28;20031;-73
2021/01/16 05:30:18;;;;;;;34.58;16.75;;;0.30;99.90;;;;;;5096414;28;20039;-73
2021/01/16 05:32:44;;;;;;;40.70;17.70;;;0.30;99.90;;;;;;5096906;28;20017;-73
2021/01/16 05:37:55;;;;;;;34.00;16.40;;;0.30;99.90;;;;;;5112188;27;20400;-71
2021/01/16 05:40:22;;;;;;;33.55;16.52;;;0.30;99.90;;;;;;5111651;28;20055;-72
2021/01/16 05:42:48;;;;;;;36.88;17.10;;;0.30;99.90;;;;;;5111900;28;20016;-74
2021/01/16 05:45:16;;;;;;;35.35;17.27;;;0.30;99.90;;;;;;5111254;28;20516;-72
2021/01/16 05:47:43;;;;;;;37.92;16.35;;;0.40;99.90;;;;;;5111747;28;20103;-72
2021/01/16 05:50:10;;;;;;;40.33;17.50;;;0.30;99.90;;;;;;5110547;28;20019;-73
2021/01/16 05:52:43;;;;;;;38.55;17.77;;;0.30;99.90;;;;;;5111352;28;20030;-72
2021/01/16 05:55:09;;;;;;;38.40;17.58;;;0.30;99.90;;;;;;5111590;28;20030;-73
2021/01/16 05:57:39;;;;;;;39.88;17.48;;;0.30;99.90;;;;;;5111187;28;20114;-73
2021/01/16 06:00:06;;;;;;;41.42;17.90;;;0.30;99.90;;;;;;5111536;28;20024;-74
2021/01/16 06:02:34;;;;;;;35.78;17.27;;;0.30;99.90;;;;;;5111494;28;20069;-73
2021/01/16 06:04:59;;;;;;;39.33;18.15;;;0.30;99.90;;;;;;5110205;28;20023;-73
2021/01/16 06:07:26;;;;;;;40.72;19.20;;;0.30;99.90;;;;;;5111072;28;20034;-73
2021/01/16 06:09:53;;;;;;;45.17;19.75;;;0.30;99.90;;;;;;5111336;28;20032;-73
2021/01/16 06:12:21;;;;;;;41.00;19.73;;;0.30;99.90;;;;;;5111047;28;20023;-74
2021/01/16 06:14:47;;;;;;;42.33;18.85;;;0.30;99.90;;;;;;5111206;28;20019;-74
2021/01/16 06:17:15;;;;;;;41.17;19.45;;;0.30;99.90;;;;;;5111133;28;20466;-73
2021/01/16 06:19:44;;;;;;;44.03;19.35;;;0.30;99.90;;;;;;5111224;28;20024;-73
2021/01/16 06:22:11;;;;;;;42.75;20.02;;;0.30;99.90;;;;;;5111227;28;20024;-74
2021/01/16 06:24:38;;;;;;;40.50;19.00;;;0.30;99.90;;;;;;5110856;28;20043;-73
2021/01/16 06:27:04;;;;;;;36.53;18.05;;;0.30;99.90;;;;;;5110053;28;20081;-73
2021/01/16 06:29:34;;;;;;;35.72;17.65;;;0.30;99.90;;;;;;5111015;28;20031;-74
2021/01/16 06:32:04;;;;;;;38.92;17.90;;;0.40;99.90;;;;;;5109498;28;20027;-74
2021/01/16 06:34:32;;;;;;;38.25;17.92;;;0.40;99.90;;;;;;5110914;28;20080;-73
2021/01/16 06:37:14;;;;;;;36.25;17.20;;;0.40;99.90;;;;;;5110275;28;20123;-73
2021/01/16 06:39:45;;;;;;;38.15;18.42;;;0.40;99.90;;;;;;5110493;28;20028;-74
2021/01/16 06:42:19;;;;;;;39.95;18.08;;;0.30;99.90;;;;;;5110691;28;20103;-73
2021/01/16 06:44:45;;;;;;;35.28;17.33;;;0.30;99.90;;;;;;5110382;28;20109;-73
2021/01/16 06:47:10;;;;;;;37.35;17.58;;;0.30;99.90;;;;;;5108733;28;20024;-74
2021/01/16 06:49:36;;;;;;;33.45;16.38;;;0.30;99.90;;;;;;5096468;28;20080;-73
2021/01/16 06:52:07;;;;;;;37.13;16.98;;;0.30;99.90;;;;;;5096709;28;20045;-74
2021/01/16 06:54:36;;;;;;;38.78;16.90;;;0.30;99.90;;;;;;5096954;28;20490;-74
2021/01/16 06:57:06;;;;;;;35.42;18.30;;;0.30;99.90;;;;;;5096819;28;20016;-72
2021/01/16 06:59:32;;;;;;;36.92;17.38;;;0.30;99.90;;;;;;5096310;28;20020;-74
2021/01/16 07:01:59;;;;;;;40.53;18.95;;;0.20;99.90;;;;;;5096525;28;20012;-72
2021/01/16 07:04:28;;;;;;;37.88;17.88;;;0.30;99.90;;;;;;5094919;28;20024;-73
2021/01/16 07:06:55;;;;;;;39.17;18.20;;;0.30;99.90;;;;;;5096131;28;20487;-73
2021/01/16 07:09:22;;;;;;;36.78;17.85;;;0.30;99.90;;;;;;5096637;28;20035;-73
2021/01/16 07:11:50;;;;;;;37.65;18.25;;;0.30;99.90;;;;;;5095435;28;20024;-73
2021/01/16 07:14:16;;;;;;;35.00;15.45;;;0.30;99.90;;;;;;5096273;28;20077;-73
2021/01/16 07:16:44;;;;;;;38.92;16.85;;;0.30;99.90;;;;;;5096425;28;20024;-72
2021/01/16 07:19:11;;;;;;;34.95;16.70;;;0.30;99.90;;;;;;5095481;28;20016;-72
2021/01/16 07:21:41;;;;;;;33.08;16.65;;;0.40;99.90;;;;;;5096430;28;20016;-73
2021/01/16 07:24:11;;;;;;;39.85;17.35;;;0.50;99.90;;;;;;5096359;28;20013;-73
2021/01/16 07:26:39;;;;;;;41.30;18.23;;;0.40;99.90;;;;;;5096323;28;20062;-73
2021/01/16 07:29:07;;;;;;;39.25;17.95;;;0.40;99.90;;;;;;5096229;28;20032;-73
2021/01/16 07:31:41;;;;;;;37.05;17.27;;;0.40;99.90;;;;;;5096191;28;20028;-73
2021/01/16 07:34:07;;;;;;;37.10;18.33;;;0.50;99.90;;;;;;5096116;28;20077;-73
2021/01/16 07:36:34;;;;;;;35.83;17.90;;;0.40;99.90;;;;;;5095587;28;20481;-73
2021/01/16 07:39:05;;;;;;;39.08;16.55;;;0.40;99.90;;;;;;5096044;28;20470;-74
2021/01/16 07:41:34;;;;;;;37.95;17.20;;;0.40;99.90;;;;;;5095744;28;20062;-74
2021/01/16 07:44:07;;;;;;;40.30;19.02;;;0.40;99.90;;;;;;5094523;28;20054;-74
2021/01/16 07:46:34;;;;;;;35.13;17.95;;;0.40;99.90;;;;;;5095893;28;20028;-74
2021/01/16 07:49:02;;;;;;;35.20;17.13;;;0.40;99.90;;;;;;5095860;28;20023;-73
2021/01/16 07:51:33;;;;;;;36.70;16.75;;;0.50;99.90;;;;;;5095259;28;20020;-73
2021/01/16 07:54:03;;;;;;;39.42;18.02;;;0.50;99.90;;;;;;5095755;28;20016;-74
2021/01/16 07:56:37;;;;;;;35.13;16.77;;;0.50;99.90;;;;;;5095684;28;20035;-73
2021/01/16 07:59:19;;;;;;;39.03;17.50;;;0.50;99.90;;;;;;5094742;28;20362;-74
2021/01/16 08:02:13;;;;;;;35.97;16.83;;;0.50;99.90;;;;;;5095652;28;20017;-74
2021/01/16 08:08:23;;;;;;;33.65;16.20;;;0.60;99.90;;;;;;5091708;28;20671;-73
2021/01/16 08:10:54;;;;;;;34.83;16.05;;;0.60;99.90;;;;;;5074411;28;20024;-73
2021/01/16 08:13:22;;;;;;;38.25;16.30;;;0.60;99.90;;;;;;5091436;28;20024;-73
2021/01/16 08:15:50;;;;;;;39.17;17.50;;;0.60;99.90;;;;;;5091437;28;20024;-73
2021/01/16 08:18:20;;;;;;;35.38;16.80;;;0.60;99.90;;;;;;5091407;28;20107;-73
2021/01/16 08:20:48;;;;;;;32.45;16.42;;;0.60;99.90;;;;;;5091330;28;20016;-73
2021/01/16 08:23:23;;;;;;;37.78;17.60;;;0.60;99.90;;;;;;5089571;28;20028;-73
2021/01/16 08:25:49;;;;;;;36.65;17.38;;;0.60;99.90;;;;;;5091157;28;20108;-72
2021/01/16 08:28:24;;;;;;;36.45;18.25;;;0.70;99.90;;;;;;5089383;28;20052;-73
2021/01/16 08:30:50;;;;;;;33.75;17.08;;;0.70;99.90;;;;;;5091144;28;20469;-73
2021/01/16 08:33:15;;;;;;;34.00;16.88;;;0.70;99.90;;;;;;5091105;28;20073;-73
2021/01/16 08:35:43;;;;;;;39.88;18.90;;;0.70;99.90;;;;;;5091082;28;20028;-73
2021/01/16 08:38:22;;;;;;;41.28;17.45;;;0.70;99.90;;;;;;5090758;28;20481;-73
2021/01/16 08:43:36;;;;;;;40.53;17.38;;;0.80;99.90;;;;;;5073723;28;20365;-72
2021/01/16 08:46:37;;;;;;;36.72;17.75;;;0.80;99.90;;;;;;5069896;28;20025;-72
2021/01/16 08:49:17;;;;;;;32.65;16.15;;;0.90;99.90;;;;;;5052870;28;20021;-71
2021/01/16 08:51:44;;;;;;;32.63;16.58;;;0.90;99.90;;;;;;5071207;28;20082;-73
2021/01/16 08:54:14;;;;;;;36.42;15.98;;;0.90;99.90;;;;;;5071163;28;20070;-74
2021/01/16 08:56:45;;;;;;;36.90;17.10;;;0.90;99.90;;;;;;5070572;28;20052;-72
2021/01/16 08:59:23;;;;;;;40.10;17.58;;;0.90;99.90;;;;;;5070820;28;20478;-74
2021/01/16 09:01:51;;;;;;;37.40;17.27;;;0.90;99.90;;;;;;5069223;28;20062;-74
2021/01/16 09:04:23;;;;;;;33.10;17.08;;;0.90;99.90;;;;;;5070668;28;20021;-74
2021/01/16 09:06:51;;;;;;;38.20;17.25;;;0.90;99.90;;;;;;5070648;28;20028;-74
2021/01/16 09:09:26;;;;;;;39.45;17.02;;;1.00;99.90;;;;;;5070818;28;20029;-74
2021/01/16 09:12:11;;;;;;;38.38;16.23;;;1.00;99.90;;;;;;5070848;28;20070;-74
2021/01/16 09:14:40;;;;;;;35.78;16.42;;;1.00;99.90;;;;;;5070554;28;20107;-74
2021/01/16 09:17:18;;;;;;;37.97;16.70;;;1.00;99.90;;;;;;5052653;28;20493;-74
2021/01/16 09:19:43;;;;;;;31.92;16.30;;;1.10;99.90;;;;;;5068854;28;20041;-74
2021/01/16 09:22:18;;;;;;;31.33;15.32;;;1.10;99.90;;;;;;5070534;28;20097;-74
2021/01/16 09:24:43;;;;;;;32.85;15.73;;;1.20;99.90;;;;;;5070574;28;20025;-74
2021/01/16 09:27:27;;;;;;;31.83;15.30;;;1.30;99.90;;;;;;5070479;28;20028;-74
2021/01/16 09:29:53;;;;;;;39.03;16.92;;;1.30;99.90;;;;;;5068744;28;20048;-74
2021/01/16 09:32:36;;;;;;;29.40;14.85;;;1.30;99.90;;;;;;5052481;28;20099;-74
2021/01/16 09:35:04;;;;;;;31.30;14.88;;;1.30;99.90;;;;;;5052943;28;20024;-74
2021/01/16 09:37:35;;;;;;;26.02;13.70;;;1.30;99.90;;;;;;5070225;28;20036;-74
2021/01/16 09:40:06;;;;;;;34.50;15.45;;;1.40;99.90;;;;;;5069944;28;20103;-74
2021/01/16 09:42:42;;;;;;;27.73;13.63;;;1.40;99.90;;;;;;5069500;28;20508;-74
2021/01/16 09:45:08;;;;;;;27.63;14.25;;;1.50;99.90;;;;;;5069817;28;20020;-74
2021/01/16 09:47:38;;;;;;;30.98;14.25;;;1.40;99.90;;;;;;5069942;28;20029;-74
2021/01/16 09:53:01;;;;;;;32.05;14.02;;;1.50;99.90;;;;;;5112110;27;20109;-73
2021/01/16 09:55:32;;;;;;;28.95;14.35;;;1.50;99.90;;;;;;5128255;27;20024;-74
2021/01/16 09:57:59;;;;;;;31.73;14.48;;;1.50;99.90;;;;;;5111837;28;20023;-68
2021/01/16 10:00:28;;;;;;;31.00;14.90;;;1.50;99.90;;;;;;5111177;28;20018;-68
2021/01/16 10:03:00;;;;;;;30.83;14.20;;;1.50;99.90;;;;;;5111691;28;20016;-68
2021/01/16 10:05:29;;;;;;;30.75;15.00;;;1.60;99.90;;;;;;5109857;28;20369;-68
2021/01/16 10:07:57;;;;;;;29.70;14.07;;;1.60;99.90;;;;;;5111649;28;20072;-68
2021/01/16 10:10:24;;;;;;;29.52;14.43;;;1.60;99.90;;;;;;5111133;28;20035;-68
2021/01/16 10:12:57;;;;;;;33.03;14.60;;;1.60;99.90;;;;;;5111512;28;20099;-68
2021/01/16 10:15:29;;;;;;;32.90;14.05;;;1.70;99.90;;;;;;5111443;28;20023;-68
2021/01/16 10:17:56;;;;;;;28.83;14.60;;;1.60;99.90;;;;;;5111141;28;20080;-68
2021/01/16 10:20:32;;;;;;;28.45;13.57;;;1.70;99.90;;;;;;5111345;28;20020;-68
2021/01/16 10:22:59;;;;;;;32.45;14.68;;;1.70;99.90;;;;;;5111049;28;20032;-68
2021/01/16 10:25:40;;;;;;;27.80;14.68;;;1.70;99.90;;;;;;5111313;28;20032;-68
2021/01/16 10:28:09;;;;;;;29.77;14.70;;;1.80;99.90;;;;;;5110942;28;20028;-68
2021/01/16 10:30:47;;;;;;;33.97;14.45;;;1.80;99.90;;;;;;5111042;28;20444;-68
2021/01/16 10:33:19;;;;;;;32.22;14.30;;;1.80;99.90;;;;;;5110873;28;20426;-67
2021/01/16 10:35:49;;;;;;;27.10;12.73;;;1.90;99.90;;;;;;5110837;28;20449;-68
2021/01/16 10:38:42;;;;;;;31.65;13.88;;;1.90;99.90;;;;;;5111048;28;20024;-68
2021/01/16 10:41:09;;;;;;;27.05;13.23;;;1.80;99.90;;;;;;5110700;28;20473;-68
2021/01/16 10:43:35;;;;;;;29.02;12.90;;;1.90;99.90;;;;;;5110920;28;20034;-68
2021/01/16 10:46:14;;;;;;;31.35;13.82;;;1.90;99.90;;;;;;5110874;28;20028;-68
2021/01/16 10:48:41;;;;;;;25.02;12.95;;;1.90;99.90;;;;;;5110865;28;20034;-68
2021/01/16 10:51:09;;;;;;;30.30;14.23;;;1.90;99.90;;;;;;5110365;28;20046;-68
2021/01/16 10:53:37;;;;;;;29.98;14.63;;;1.90;99.90;;;;;;5109540;28;20428;-68
2021/01/16 10:56:25;;;;;;;28.70;14.52;;;1.90;99.90;;;;;;5091955;28;20097;-68
2021/01/16 10:58:51;;;;;;;33.60;15.07;;;2.00;99.90;;;;;;5110633;28;20049;-68
2021/01/16 11:01:44;;;;;;;26.75;13.05;;;2.00;99.90;;;;;;5092451;28;20024;-68
2021/01/16 11:04:18;;;;;;;27.58;14.45;;;2.00;99.90;;;;;;5095838;28;20020;-68
2021/01/16 11:06:48;;;;;;;26.50;13.10;;;2.10;99.90;;;;;;5096890;28;20039;-68
2021/01/16 11:09:36;;;;;;;27.42;13.07;;;2.00;99.90;;;;;;5095166;28;20020;-68
2021/01/16 11:12:05;;;;;;;27.35;12.52;;;2.00;99.90;;;;;;5096112;28;20166;-68
2021/01/16 11:14:37;;;;;;;25.17;12.77;;;2.00;99.90;;;;;;5096539;28;20100;-68
2021/01/16 11:17:04;;;;;;;24.35;13.27;;;2.10;99.90;;;;;;5096738;28;20052;-68
2021/01/16 11:19:33;;;;;;;28.55;13.70;;;2.10;99.90;;;;;;5096154;28;20020;-68
2021/01/16 11:22:15;;;;;;;23.10;12.43;;;2.10;99.90;;;;;;5095648;28;20034;-68
2021/01/16 11:24:56;;;;;;;25.42;12.43;;;2.10;99.90;;;;;;5096621;28;20055;-68
2021/01/16 11:27:29;;;;;;;26.63;13.63;;;2.10;99.90;;;;;;5096207;28;20024;-68
2021/01/16 11:30:06;;;;;;;24.60;13.10;;;2.10;99.90;;;;;;5096476;28;20024;-68
2021/01/16 11:32:37;;;;;;;27.75;14.18;;;2.20;99.90;;;;;;5094887;28;20024;-68
2021/01/16 11:37:52;;;;;;;22.05;11.65;;;2.10;99.90;;;;;;5112157;27;20743;-66
2021/01/16 11:40:27;;;;;;;25.02;11.95;;;2.20;99.90;;;;;;5110040;28;20020;-67
2021/01/16 11:42:55;;;;;;;25.13;13.30;;;2.10;99.90;;;;;;5111594;28;20051;-68
2021/01/16 11:45:24;;;;;;;26.33;13.02;;;2.20;99.90;;;;;;5093342;28;20026;-68
2021/01/16 11:47:55;;;;;;;25.63;12.63;;;2.20;99.90;;;;;;5111455;28;20095;-68
2021/01/16 11:50:22;;;;;;;25.80;13.10;;;2.30;99.90;;;;;;5111480;28;20016;-68
2021/01/16 11:52:48;;;;;;;25.75;12.73;;;2.30;99.90;;;;;;5111629;28;20027;-68
2021/01/16 11:55:15;;;;;;;24.33;12.75;;;2.30;99.90;;;;;;5111532;28;20027;-68
2021/01/16 11:57:43;;;;;;;26.45;13.18;;;2.30;99.90;;;;;;5111245;28;20058;-68
2021/01/16 12:00:10;;;;;;;25.42;12.93;;;2.30;99.90;;;;;;5110996;28;20016;-68
2021/01/16 12:02:37;;;;;;;24.02;12.45;;;2.20;99.90;;;;;;5110054;28;20031;-68
2021/01/16 12:05:03;;;;;;;23.92;13.25;;;2.20;99.90;;;;;;5111139;28;20032;-68
2021/01/16 12:07:30;;;;;;;23.35;12.73;;;2.30;99.90;;;;;;5111397;28;20019;-68
2021/01/16 12:09:57;;;;;;;26.92;12.85;;;2.20;99.90;;;;;;5111387;28;20020;-68
2021/01/16 12:12:31;;;;;;;29.70;13.52;;;2.20;99.90;;;;;;5111269;28;20097;-68
2021/01/16 12:14:56;;;;;;;26.17;13.48;;;2.30;99.90;;;;;;5110118;28;20027;-68
2021/01/16 12:17:27;;;;;;;26.33;13.48;;;2.30;99.90;;;;;;5111127;28;20362;-68
2021/01/16 12:19:53;;;;;;;26.85;14.23;;;2.40;99.90;;;;;;5110906;28;20475;-68
2021/01/16 12:22:21;;;;;;;26.92;14.63;;;2.40;99.90;;;;;;5111095;28;20085;-68
2021/01/16 12:24:47;;;;;;;24.83;13.88;;;2.30;99.90;;;;;;5111058;28;20012;-68
2021/01/16 12:27:13;;;;;;;26.60;14.30;;;2.30;99.90;;;;;;5111050;28;20102;-68
2021/01/16 12:29:42;;;;;;;27.55;14.23;;;2.40;99.90;;;;;;5110840;28;20027;-68
2021/01/16 12:32:11;;;;;;;30.55;14.50;;;2.40;99.90;;;;;;5109768;28;20465;-68
2021/01/16 12:34:54;;;;;;;26.75;14.02;;;2.30;99.90;;;;;;5110271;28;20066;-68
2021/01/16 12:37:37;;;;;;;27.13;14.55;;;2.30;99.90;;;;;;5109975;28;20040;-68
2021/01/16 12:40:06;;;;;;;21.40;11.02;;;2.30;99.90;;;;;;5110648;28;20375;-68
2021/01/16 12:42:32;;;;;;;29.35;14.32;;;2.30;99.90;;;;;;5109674;28;20481;-68
2021/01/16 12:45:19;;;;;;;29.88;14.40;;;2.30;99.90;;;;;;5108777;28;20020;-68
2021/01/16 12:47:50;;;;;;;26.83;13.82;;;2.30;99.90;;;;;;5104174;28;20030;-68
2021/01/16 12:50:15;;;;;;;26.42;14.43;;;2.30;99.90;;;;;;5096934;28;20021;-68
2021/01/16 12:52:46;;;;;;;30.30;14.90;;;2.30;99.90;;;;;;5078213;28;20027;-68
2021/01/16 12:55:15;;;;;;;29.73;13.57;;;2.40;99.90;;;;;;5096606;28;20028;-68
2021/01/16 12:57:44;;;;;;;29.27;14.02;;;2.30;99.90;;;;;;5095687;28;20342;-68
2021/01/16 13:00:17;;;;;;;23.77;13.35;;;2.30;99.90;;;;;;5096271;28;20024;-68
2021/01/16 13:02:43;;;;;;;26.85;13.88;;;2.30;99.90;;;;;;5094991;28;20028;-68